Time;durP1;ratioP1;P1;durP2;ratioP2;P2;SDS_P1;SDS_P2;PMS_P1;PMS_P2;Temp;Humidity;BMP_temperature;BMP_pressure;BME280_temperature;BME280_humidity;BME280_pressure;Samples;Min_cycle;Max_cycle;Signal;HPM_P1;HPM_P2
2023/07/01 00:02:02;;;;;;;10.90;7.30;;;;;;;18.15;77.87;98817.91;106806;1257;72786;-78
2023/07/01 00:04:30;;;;;;;7.80;7.00;;;;;;;18.16;77.84;98816.52;107106;1260;59493;-79
2023/07/01 00:06:58;;;;;;;8.30;7.50;;;;;;;18.11;77.87;98815.34;106862;1255;59498;-78
2023/07/01 00:09:26;;;;;;;8.10;7.40;;;;;;;18.05;78.02;98814.48;106702;1255;73550;-77
2023/07/01 00:11:53;;;;;;;7.90;7.10;;;;;;;17.99;78.20;98817.55;106882;1257;70420;-76
2023/07/01 00:14:21;;;;;;;13.10;7.50;;;;;;;18.01;78.19;98823.38;106598;1257;73524;-77
2023/07/01 00:16:48;;;;;;;7.20;6.60;;;;;;;18.02;78.18;98823.35;106358;1257;60970;-79
2023/07/01 00:19:17;;;;;;;7.70;7.00;;;;;;;17.98;78.14;98827.98;106757;1257;59573;-79
2023/07/01 00:21:47;;;;;;;8.10;7.00;;;;;;;17.92;78.39;98825.46;109036;1257;73036;-76
2023/07/01 00:24:14;;;;;;;9.40;6.60;;;;;;;17.89;78.51;98831.35;107095;1260;69010;-78
2023/07/01 00:26:42;;;;;;;8.20;6.70;;;;;;;17.92;78.46;98832.71;105762;1257;72897;-78
2023/07/01 00:29:09;;;;;;;7.90;7.20;;;;;;;17.92;78.50;98833.90;105993;1262;59648;-80
2023/07/01 00:31:37;;;;;;;8.60;7.30;;;;;;;17.85;78.70;98834.98;106072;1262;61362;-78
2023/07/01 00:34:04;;;;;;;9.70;7.60;;;;;;;17.79;78.92;98836.94;105928;1262;71801;-78
2023/07/01 00:36:32;;;;;;;8.20;7.40;;;;;;;17.72;79.06;98833.36;105836;1262;71111;-78
2023/07/01 00:38:59;;;;;;;9.10;7.50;;;;;;;17.74;79.08;98837.48;106058;1257;72885;-77
2023/07/01 00:41:27;;;;;;;9.60;7.40;;;;;;;17.74;79.08;98836.59;106068;1257;60051;-78
2023/07/01 00:43:54;;;;;;;8.00;6.90;;;;;;;17.70;79.18;98836.96;106324;1262;59580;-78
2023/07/01 00:46:22;;;;;;;7.80;7.10;;;;;;;17.64;79.34;98839.26;106376;1262;75231;-79
2023/07/01 00:48:49;;;;;;;8.30;7.20;;;;;;;17.60;79.45;98835.56;107792;1256;69554;-80
2023/07/01 00:51:17;;;;;;;9.70;7.10;;;;;;;17.65;79.57;98832.33;108908;1257;71455;-80
2023/07/01 00:53:44;;;;;;;8.10;7.30;;;;;;;17.66;79.51;98832.11;107760;1257;59616;-81
2023/07/01 00:56:13;;;;;;;8.50;7.60;;;;;;;17.62;79.60;98829.92;106402;1256;59548;-79
2023/07/01 00:58:40;;;;;;;8.10;6.70;;;;;;;17.56;79.69;98825.83;106386;1257;72157;-80
2023/07/01 01:01:10;;;;;;;7.50;6.80;;;;;;;17.53;79.84;98823.44;105992;1257;70952;-78
2023/07/01 01:03:47;;;;;;;7.20;6.50;;;;;;;17.58;79.82;98826.45;106410;1254;72713;-79
2023/07/01 01:06:20;;;;;;;7.80;7.00;;;;;;;17.61;79.71;98827.20;106410;1255;60282;-78
2023/07/01 01:09:01;;;;;;;7.70;6.70;;;;;;;17.57;79.69;98824.18;106003;1256;59955;-77
2023/07/01 01:11:30;;;;;;;7.80;7.00;;;;;;;17.52;79.84;98822.88;106143;1261;73033;-74
2023/07/01 01:13:59;;;;;;;7.30;6.50;;;;;;;17.48;79.93;98824.79;106072;1259;70477;-76
2023/07/01 01:16:27;;;;;;;7.70;7.10;;;;;;;17.53;79.87;98825.64;106278;1257;72402;-76
2023/07/01 01:18:54;;;;;;;7.90;7.10;;;;;;;17.56;79.85;98822.84;107675;1256;59280;-79
2023/07/01 01:21:22;;;;;;;9.30;6.60;;;;;;;17.52;79.87;98825.48;108687;1254;58761;-78
2023/07/01 01:23:55;;;;;;;7.50;6.70;;;;;;;17.49;79.97;98821.59;107141;1260;71774;-77
2023/07/01 01:26:23;;;;;;;8.00;6.50;;;;;;;17.48;80.01;98822.80;106628;1253;69168;-76
2023/07/01 01:28:53;;;;;;;7.40;6.70;;;;;;;17.54;79.89;98815.41;106205;1260;72737;-77
2023/07/01 01:31:20;;;;;;;10.20;7.20;;;;;;;17.61;79.72;98813.73;105964;1260;60370;-79
2023/07/01 01:33:48;;;;;;;8.60;7.50;;;;;;;17.60;79.63;98813.66;106517;1259;59692;-80
2023/07/01 01:36:42;;;;;;;8.20;6.50;;;;;;;17.57;79.69;98811.05;106507;1259;71838;-81
2023/07/01 01:39:09;;;;;;;13.10;7.40;;;;;;;17.54;79.74;98809.17;106394;1262;69020;-78
2023/07/01 01:41:44;;;;;;;7.10;6.40;;;;;;;17.59;79.67;98809.45;107400;1257;71655;-80
2023/07/01 01:44:16;;;;;;;10.50;7.10;;;;;;;17.61;79.58;98808.70;108233;1259;59628;-78
2023/07/01 01:46:44;;;;;;;8.60;7.60;;;;;;;17.57;79.70;98810.59;108207;1255;59711;-76
2023/07/01 01:49:12;;;;;;;7.50;6.40;;;;;;;17.52;79.85;98811.92;107816;1258;71827;-80
2023/07/01 01:51:40;;;;;;;6.80;6.20;;;;;;;17.48;80.09;98815.67;109414;1254;70726;-79
2023/07/01 01:54:09;;;;;;;6.90;6.30;;;;;;;17.53;80.04;98818.23;108708;1254;71138;-79
2023/07/01 01:56:36;;;;;;;7.90;7.10;;;;;;;17.54;80.03;98817.77;108817;1255;59558;-80
2023/07/01 01:59:04;;;;;;;7.80;7.10;;;;;;;17.51;80.05;98818.20;108390;1255;58834;-79
2023/07/01 02:01:33;;;;;;;7.10;6.40;;;;;;;17.48;80.11;98813.61;108032;1260;73099;-79
2023/07/01 02:04:01;;;;;;;10.60;6.90;;;;;;;17.47;80.22;98818.54;108391;1254;68738;-78
2023/07/01 02:06:29;;;;;;;10.00;7.40;;;;;;;17.55;80.05;98819.19;107845;1257;71547;-80
2023/07/01 02:08:57;;;;;;;7.60;6.90;;;;;;;17.60;79.95;98820.65;107264;1254;59653;-78
2023/07/01 02:11:25;;;;;;;7.60;6.90;;;;;;;17.59;79.93;98829.10;107656;1258;59637;-78
2023/07/01 02:13:52;;;;;;;6.90;6.30;;;;;;;17.56;79.86;98834.78;107675;1257;71953;-79
2023/07/01 02:16:19;;;;;;;8.30;6.30;;;;;;;17.53;80.10;98838.52;107580;1259;69322;-80
2023/07/01 02:18:47;;;;;;;7.20;6.50;;;;;;;17.58;80.14;98841.60;109051;1254;72717;-78
2023/07/01 02:21:14;;;;;;;9.20;6.80;;;;;;;17.62;80.04;98845.13;109588;1251;58788;-79
2023/07/01 02:23:42;;;;;;;7.70;7.00;;;;;;;17.60;80.09;98851.36;108376;1251;59289;-80
2023/07/01 02:26:10;;;;;;;6.80;6.10;;;;;;;17.57;80.27;98849.14;107090;1251;72210;-79
2023/07/01 02:28:38;;;;;;;7.30;6.30;;;;;;;17.57;80.27;98851.83;106214;1251;69122;-81
2023/07/01 02:31:06;;;;;;;8.10;6.60;;;;;;;17.64;80.10;98849.45;106196;1254;73059;-81
2023/07/01 02:33:34;;;;;;;7.60;6.80;;;;;;;17.64;80.11;98847.90;106263;1256;60216;-83
2023/07/01 02:36:01;;;;;;;8.60;7.80;;;;;;;17.60;80.12;98855.92;106111;1251;60028;-81
2023/07/01 02:38:28;;;;;;;8.10;6.90;;;;;;;17.56;80.34;98853.90;106252;1256;73036;-82
2023/07/01 02:40:56;;;;;;;8.40;7.50;;;;;;;17.60;80.35;98853.95;106112;1257;69011;-81
2023/07/01 02:43:23;;;;;;;8.20;7.40;;;;;;;17.64;80.24;98852.73;106139;1255;72622;-80
2023/07/01 02:45:51;;;;;;;8.10;6.90;;;;;;;17.59;80.31;98856.66;106414;1256;59704;-80
2023/07/01 02:48:18;;;;;;;8.50;7.70;;;;;;;17.55;80.47;98857.52;106655;1251;59985;-80
2023/07/01 02:50:46;;;;;;;8.30;7.10;;;;;;;17.52;80.63;98857.00;106911;1257;73208;-80
2023/07/01 02:53:15;;;;;;;7.70;6.90;;;;;;;17.58;80.59;98857.87;106131;1259;68196;-79
2023/07/01 02:55:43;;;;;;;8.20;7.40;;;;;;;17.61;80.45;98861.54;106177;1255;71597;-79
2023/07/01 02:58:10;;;;;;;7.80;6.50;;;;;;;17.58;80.63;98858.58;105961;1252;60143;-76
2023/07/01 03:00:37;;;;;;;8.90;7.40;;;;;;;17.55;80.54;98853.14;105994;1255;60279;-78
2023/07/01 03:03:08;;;;;;;6.90;6.00;;;;;;;17.60;80.56;98855.08;105960;1262;73271;-77
2023/07/01 03:05:36;;;;;;;7.00;6.30;;;;;;;17.69;80.34;98849.73;105952;1251;70734;-75
2023/07/01 03:08:04;;;;;;;7.80;6.60;;;;;;;17.71;80.24;98856.96;105967;1257;71228;-78
2023/07/01 03:10:32;;;;;;;7.50;6.90;;;;;;;17.70;80.27;98861.25;106034;1251;60050;-80
2023/07/01 03:13:00;;;;;;;7.80;7.00;;;;;;;17.68;80.20;98867.76;105996;1254;59722;-79
2023/07/01 03:15:27;;;;;;;6.50;5.90;;;;;;;17.71;80.18;98864.23;106043;1258;72958;-77
2023/07/01 03:17:54;;;;;;;8.00;7.00;;;;;;;17.78;79.98;98859.77;106438;1260;69990;-79
2023/07/01 03:20:23;;;;;;;6.70;6.10;;;;;;;17.78;79.98;98861.79;108444;1251;72871;-79
2023/07/01 03:22:56;;;;;;;7.50;6.80;;;;;;;17.78;79.96;98861.09;109220;1256;59647;-79
2023/07/01 03:25:25;;;;;;;7.20;6.50;;;;;;;17.80;79.82;98858.02;107699;1256;59128;-79
2023/07/01 03:27:52;;;;;;;8.00;6.50;;;;;;;17.89;79.74;98857.11;106520;1253;75448;-81
2023/07/01 03:30:28;;;;;;;9.70;6.70;;;;;;;17.99;79.45;98863.23;106141;1260;68819;-80
2023/07/01 03:32:56;;;;;;;7.20;6.40;;;;;;;18.02;79.20;98856.84;106006;1257;71691;-81
2023/07/01 03:35:24;;;;;;;7.80;7.00;;;;;;;18.03;79.18;98854.17;106190;1254;60504;-81
2023/07/01 03:37:51;;;;;;;7.60;6.10;;;;;;;18.06;79.07;98855.69;106278;1251;60533;-79
2023/07/01 03:40:19;;;;;;;6.70;6.10;;;;;;;18.13;78.92;98854.20;106640;1251;73752;-80
2023/07/01 03:42:46;;;;;;;7.50;6.60;;;;;;;18.25;78.68;98852.38;106183;1257;68693;-80
2023/07/01 03:45:13;;;;;;;8.10;6.30;;;;;;;18.33;78.26;98854.90;106307;1257;72658;-80
2023/07/01 03:47:43;;;;;;;7.70;6.50;;;;;;;18.37;77.98;98855.78;106569;1257;59890;-82
2023/07/01 03:50:12;;;;;;;7.20;6.50;;;;;;;18.41;77.90;98857.30;107947;1250;60361;-81
2023/07/01 03:52:39;;;;;;;8.70;6.00;;;;;;;18.47;77.66;98858.91;109302;1251;72743;-80
2023/07/01 03:55:09;;;;;;;7.60;6.00;;;;;;;18.60;77.39;98861.14;106321;1256;67954;-80
2023/07/01 03:57:36;;;;;;;7.00;6.30;;;;;;;18.70;77.04;98862.94;106202;1257;70794;-79
2023/07/01 04:00:26;;;;;;;7.80;6.70;;;;;;;18.74;76.76;98866.02;106107;1256;60431;-81
2023/07/01 04:02:53;;;;;;;7.80;6.50;;;;;;;18.77;76.68;98867.95;106085;1251;60594;-80
2023/07/01 04:05:20;;;;;;;8.60;7.10;;;;;;;18.80;76.53;98871.61;106154;1256;75654;-80
2023/07/01 04:07:48;;;;;;;7.80;5.80;;;;;;;18.86;76.44;98871.98;106114;1257;68855;-81
2023/07/01 04:10:16;;;;;;;9.20;6.90;;;;;;;18.97;76.17;98876.77;106084;1256;72412;-81
2023/07/01 04:12:44;;;;;;;7.90;7.00;;;;;;;19.00;76.09;98875.05;106217;1251;60780;-79
2023/07/01 04:15:11;;;;;;;7.50;6.90;;;;;;;19.01;75.94;98877.80;106220;1258;60383;-78
2023/07/01 04:17:41;;;;;;;8.20;7.10;;;;;;;19.03;75.97;98878.05;106588;1251;72716;-80
2023/07/01 04:20:10;;;;;;;8.70;6.60;;;;;;;19.06;75.62;98875.56;107845;1250;72276;-80
2023/07/01 04:22:37;;;;;;;10.10;6.90;;;;;;;19.14;75.52;98876.16;109352;1254;73365;-76
2023/07/01 04:25:06;;;;;;;8.70;6.10;;;;;;;19.29;75.22;98877.69;106463;1252;60455;-79
2023/07/01 04:27:34;;;;;;;6.70;6.10;;;;;;;19.38;74.75;98879.13;106529;1250;60481;-77
2023/07/01 04:30:02;;;;;;;7.80;7.00;;;;;;;19.44;74.78;98874.52;106471;1254;73828;-79
2023/07/01 04:32:30;;;;;;;7.60;6.30;;;;;;;19.51;74.52;98876.23;106296;1257;69683;-79
2023/07/01 04:34:57;;;;;;;6.80;6.10;;;;;;;19.58;74.05;98876.02;106500;1256;71158;-78
2023/07/01 04:37:25;;;;;;;7.20;6.40;;;;;;;19.67;73.73;98878.89;107621;1254;60415;-81
2023/07/01 04:39:53;;;;;;;6.50;5.90;;;;;;;19.80;73.37;98879.52;107874;1256;59265;-76
2023/07/01 04:42:20;;;;;;;8.80;6.00;;;;;;;19.98;72.97;98882.35;106667;1256;72564;-76
2023/07/01 04:44:53;;;;;;;8.10;6.50;;;;;;;20.15;72.38;98881.25;106027;1256;70166;-78
2023/07/01 04:47:22;;;;;;;8.30;6.60;;;;;;;20.25;71.95;98882.11;106333;1254;70645;-75
2023/07/01 04:49:53;;;;;;;7.20;6.50;;;;;;;20.32;71.92;98881.49;107701;1250;60328;-80
2023/07/01 04:52:24;;;;;;;7.60;6.10;;;;;;;20.41;71.63;98881.81;109610;1251;58825;-77
2023/07/01 04:54:52;;;;;;;7.10;6.50;;;;;;;20.48;71.52;98882.64;106702;1256;72292;-76
2023/07/01 04:57:19;;;;;;;7.10;6.40;;;;;;;20.58;71.44;98884.09;106600;1256;68842;-81
2023/07/01 04:59:46;;;;;;;7.80;7.10;;;;;;;20.67;71.14;98885.34;106731;1252;71367;-78
2023/07/01 05:02:14;;;;;;;10.50;9.50;;;;;;;20.73;70.91;98884.38;106814;1254;60408;-77
2023/07/01 05:04:42;;;;;;;7.40;6.40;;;;;;;20.77;70.57;98881.77;106690;1267;60320;-77
2023/07/01 05:07:10;;;;;;;6.30;5.70;;;;;;;20.82;70.34;98884.02;106586;1251;72829;-78
2023/07/01 05:09:37;;;;;;;6.30;5.70;;;;;;;20.85;69.85;98885.08;106646;1256;69376;-76
2023/07/01 05:12:05;;;;;;;6.80;6.10;;;;;;;20.89;69.61;98887.55;106145;1254;71754;-78
2023/07/01 05:14:32;;;;;;;7.30;5.60;;;;;;;20.94;69.61;98886.77;106324;1254;60412;-76
2023/07/01 05:17:00;;;;;;;6.20;5.60;;;;;;;20.99;69.23;98884.83;106996;1250;60395;-78
2023/07/01 05:19:27;;;;;;;7.20;6.50;;;;;;;21.04;69.04;98887.46;107956;1251;75851;-78
2023/07/01 05:21:55;;;;;;;7.40;6.20;;;;;;;21.10;69.00;98888.80;109604;1250;68974;-78
2023/07/01 05:24:22;;;;;;;7.00;6.20;;;;;;;21.22;69.17;98888.56;108207;1251;71467;-75
2023/07/01 05:26:50;;;;;;;6.20;5.40;;;;;;;21.46;69.03;98887.08;107474;1251;60685;-76
2023/07/01 05:29:20;;;;;;;6.70;5.80;;;;;;;21.72;68.50;98888.92;107553;1254;59262;-76
2023/07/01 05:31:48;;;;;;;8.10;6.50;;;;;;;21.87;68.16;98888.80;106567;1256;73722;-78
2023/07/01 05:34:16;;;;;;;7.10;6.40;;;;;;;21.94;67.21;98887.41;106209;1251;68611;-76
2023/07/01 05:36:44;;;;;;;11.50;6.10;;;;;;;21.99;66.97;98885.76;106304;1253;72759;-76
2023/07/01 05:39:12;;;;;;;7.90;6.20;;;;;;;22.06;66.59;98887.95;106594;1254;60444;-76
2023/07/01 05:41:40;;;;;;;6.40;5.90;;;;;;;22.13;66.21;98890.20;106517;1251;60329;-76
2023/07/01 05:44:08;;;;;;;7.90;6.10;;;;;;;22.16;65.71;98892.81;106657;1251;73931;-78
2023/07/01 05:46:35;;;;;;;7.10;5.90;;;;;;;22.18;65.33;98892.38;106744;1251;72158;-76
2023/07/01 05:49:03;;;;;;;6.20;5.60;;;;;;;22.19;65.46;98894.55;109352;1251;73772;-77
2023/07/01 05:51:31;;;;;;;6.30;5.70;;;;;;;22.26;65.47;98887.94;109553;1251;60780;-77
2023/07/01 05:53:58;;;;;;;6.90;5.60;;;;;;;22.32;64.81;98887.92;108414;1250;60517;-75
2023/07/01 05:56:26;;;;;;;6.40;5.80;;;;;;;22.34;64.66;98887.48;109178;1251;72579;-76
2023/07/01 05:58:54;;;;;;;6.00;5.40;;;;;;;22.36;64.75;98886.09;109202;1251;68884;-76
2023/07/01 06:01:21;;;;;;;8.00;6.00;;;;;;;22.41;64.64;98886.80;109053;1251;71493;-77
2023/07/01 06:03:49;;;;;;;6.00;5.50;;;;;;;22.48;64.96;98886.17;108640;1251;61308;-73
2023/07/01 06:06:16;;;;;;;7.90;5.40;;;;;;;22.59;64.99;98886.19;108188;1251;60950;-73
2023/07/01 06:08:44;;;;;;;5.30;4.90;;;;;;;22.70;64.23;98885.99;107964;1257;73109;-73
2023/07/01 06:11:11;;;;;;;6.30;5.10;;;;;;;22.78;63.70;98886.60;108002;1251;72166;-74
2023/07/01 06:13:45;;;;;;;6.30;5.50;;;;;;;22.85;63.70;98883.73;108240;1251;70228;-73
2023/07/01 06:16:16;;;;;;;5.60;4.80;;;;;;;22.97;63.47;98885.05;107768;1256;60629;-76
2023/07/01 06:18:43;;;;;;;6.80;5.30;;;;;;;23.10;63.43;98880.95;108105;1251;59874;-72
2023/07/01 06:21:11;;;;;;;5.80;5.30;;;;;;;23.23;63.34;98884.63;107852;1254;73830;-73
2023/07/01 06:23:38;;;;;;;5.70;5.10;;;;;;;23.35;62.77;98889.23;108687;1251;68880;-74
2023/07/01 06:26:06;;;;;;;5.70;5.20;;;;;;;23.41;61.55;98890.48;107759;1254;72759;-72
2023/07/01 06:28:33;;;;;;;5.70;5.20;;;;;;;23.42;61.28;98885.81;108629;1251;60625;-74
2023/07/01 06:31:01;;;;;;;5.70;5.20;;;;;;;23.44;61.51;98886.89;108621;1251;58807;-75
2023/07/01 06:33:28;;;;;;;5.70;5.20;;;;;;;23.48;61.77;98887.80;108629;1251;72609;-74
2023/07/01 06:35:56;;;;;;;5.70;5.20;;;;;;;23.57;61.43;98888.80;108902;1251;68727;-74
2023/07/01 06:38:23;;;;;;;4.60;4.10;;;;;;;23.68;60.84;98889.28;108669;1251;71189;-74
2023/07/01 06:40:51;;;;;;;7.30;5.00;;;;;;;23.79;60.54;98888.29;108475;1251;60211;-72
2023/07/01 06:43:18;;;;;;;5.20;4.80;;;;;;;23.84;59.31;98884.59;108566;1251;58747;-74
2023/07/01 06:45:46;;;;;;;5.70;4.60;;;;;;;23.86;58.29;98887.63;107312;1251;72592;-74
2023/07/01 06:50:41;;;;;;;5.60;4.70;;;;;;;23.85;58.39;98878.90;103939;1294;600010;-76
2023/07/01 06:53:09;;;;;;;5.20;4.70;;;;;;;23.82;58.44;98878.74;108112;1269;59319;-76
2023/07/01 06:55:37;;;;;;;5.70;5.20;;;;;;;23.83;58.80;98878.09;105255;1268;60004;-73
2023/07/01 06:58:04;;;;;;;5.30;4.90;;;;;;;23.89;59.02;98875.86;105040;1267;72398;-73
2023/07/01 07:00:32;;;;;;;4.40;4.00;;;;;;;23.98;58.83;98876.68;104749;1269;69923;-71
2023/07/01 07:03:00;;;;;;;5.20;4.70;;;;;;;24.10;57.96;98878.38;104555;1265;72684;-74
2023/07/01 07:05:28;;;;;;;7.80;5.30;;;;;;;24.18;57.69;98878.67;104900;1271;339086;-75
2023/07/01 07:07:55;;;;;;;5.90;5.40;;;;;;;24.20;57.88;98879.46;104856;1263;59265;-75
2023/07/01 07:10:23;;;;;;;6.50;5.70;;;;;;;24.21;57.52;98877.67;104778;1263;70955;-74
2023/07/01 07:12:50;;;;;;;5.80;5.30;;;;;;;24.20;57.35;98880.06;104981;1263;69979;-76
2023/07/01 07:15:18;;;;;;;6.50;4.80;;;;;;;24.18;57.52;98881.16;104932;1265;72639;-73
2023/07/01 07:17:45;;;;;;;5.70;5.10;;;;;;;24.18;57.80;98881.87;104979;1262;59797;-71
2023/07/01 07:20:13;;;;;;;5.30;4.30;;;;;;;24.22;58.15;98883.95;106870;1262;59511;-74
2023/07/01 07:22:41;;;;;;;4.90;4.50;;;;;;;24.29;57.19;98879.96;107359;1256;73729;-72
2023/07/01 07:25:15;;;;;;;5.10;4.70;;;;;;;24.36;57.39;98877.75;105663;1257;69014;-74
2023/07/01 07:27:44;;;;;;;5.30;4.50;;;;;;;24.41;57.05;98879.46;105657;1260;71429;-74
2023/07/01 07:30:14;;;;;;;5.10;4.40;;;;;;;24.41;56.28;98879.45;105060;1256;60040;-73
2023/07/01 07:32:42;;;;;;;4.80;4.40;;;;;;;24.37;55.93;98885.55;105562;1256;59667;-75
2023/07/01 07:35:10;;;;;;;5.90;4.40;;;;;;;24.34;55.75;98882.81;105271;1260;73212;-75
2023/07/01 07:37:38;;;;;;;6.30;4.80;;;;;;;24.34;55.58;98878.91;105179;1261;70412;-75
2023/07/01 07:40:07;;;;;;;6.80;4.70;;;;;;;24.37;55.88;98879.59;105260;1256;72640;-77
2023/07/01 07:42:35;;;;;;;5.40;4.10;;;;;;;24.42;55.81;98874.24;105144;1257;60563;-75
2023/07/01 07:45:03;;;;;;;6.30;4.30;;;;;;;24.49;55.53;98874.11;106004;1254;59543;-77
2023/07/01 07:47:32;;;;;;;6.60;4.70;;;;;;;24.56;55.11;98868.48;105506;1254;73006;-75
2023/07/01 07:50:01;;;;;;;5.10;4.60;;;;;;;24.66;55.55;98872.86;106178;1257;69035;-74
2023/07/01 07:52:29;;;;;;;4.20;3.80;;;;;;;24.79;55.54;98872.95;107971;1258;71504;-75
2023/07/01 07:54:57;;;;;;;4.30;3.80;;;;;;;24.94;54.33;98867.02;106896;1258;59655;-74
2023/07/01 07:57:25;;;;;;;4.30;3.70;;;;;;;25.10;53.95;98868.90;106572;1258;59687;-76
2023/07/01 07:59:53;;;;;;;4.10;3.70;;;;;;;25.25;52.71;98871.84;105785;1255;72808;-76
2023/07/01 08:02:21;;;;;;;4.10;3.80;;;;;;;25.35;52.43;98874.73;105740;1255;68994;-74
2023/07/01 08:04:49;;;;;;;4.50;3.80;;;;;;;25.43;52.75;98874.60;105672;1260;71147;-74
2023/07/01 08:07:17;;;;;;;5.00;4.20;;;;;;;25.53;52.90;98876.29;105475;1257;59613;-75
2023/07/01 08:09:44;;;;;;;5.20;3.60;;;;;;;25.65;52.03;98870.34;105815;1256;59808;-78
2023/07/01 08:12:11;;;;;;;5.30;3.70;;;;;;;25.78;51.87;98871.08;105672;1256;71884;-75
2023/07/01 08:14:39;;;;;;;3.90;3.60;;;;;;;25.91;51.64;98865.93;105578;1261;72086;-74
2023/07/01 08:17:07;;;;;;;4.20;3.30;;;;;;;26.00;51.17;98867.47;105652;1255;71518;-75
2023/07/01 08:19:34;;;;;;;4.50;3.80;;;;;;;26.05;50.68;98869.86;105414;1261;59763;-73
2023/07/01 08:22:02;;;;;;;4.90;3.70;;;;;;;26.01;49.88;98873.11;106635;1255;59950;-74
2023/07/01 08:24:29;;;;;;;3.90;3.60;;;;;;;25.98;50.10;98872.88;108302;1255;71804;-75
2023/07/01 08:26:59;;;;;;;4.50;4.10;;;;;;;26.01;49.61;98863.15;106190;1255;69045;-76
2023/07/01 08:29:27;;;;;;;3.90;3.60;;;;;;;26.01;49.68;98866.16;105528;1255;70807;-73
2023/07/01 08:31:54;;;;;;;5.10;3.70;;;;;;;26.02;49.34;98866.52;105241;1255;59742;-75
2023/07/01 08:34:22;;;;;;;5.40;3.40;;;;;;;26.05;49.33;98865.02;105483;1255;59736;-74
2023/07/01 08:36:49;;;;;;;4.10;3.70;;;;;;;26.13;49.39;98868.39;105323;1256;73162;-75
2023/07/01 08:39:17;;;;;;;4.00;3.60;;;;;;;26.18;49.10;98869.80;105654;1256;68560;-75
2023/07/01 08:41:52;;;;;;;4.30;4.00;;;;;;;26.24;48.92;98872.06;105787;1256;72772;-76
2023/07/01 08:44:19;;;;;;;5.00;4.10;;;;;;;26.37;49.29;98866.07;105517;1255;60148;-75
2023/07/01 08:46:52;;;;;;;4.90;3.80;;;;;;;26.56;48.88;98869.55;105626;1254;59751;-76
2023/07/01 08:49:21;;;;;;;4.40;3.70;;;;;;;26.75;48.48;98864.61;105636;1259;73244;-77
2023/07/01 08:51:56;;;;;;;4.20;3.70;;;;;;;26.89;48.25;98862.92;106450;1256;70369;-77
2023/07/01 08:54:23;;;;;;;4.00;3.70;;;;;;;27.00;48.32;98865.35;108783;1255;73241;-77
2023/07/01 08:56:50;;;;;;;9.00;3.80;;;;;;;27.07;47.98;98869.81;107245;1255;59754;-75
2023/07/01 08:59:18;;;;;;;7.90;6.10;;;;;;;27.15;48.17;98871.05;105631;1260;60487;-78
2023/07/01 09:01:45;;;;;;;4.40;4.00;;;;;;;27.24;47.81;98872.86;105662;1256;74073;-75
2023/07/01 09:04:13;;;;;;;5.00;4.00;;;;;;;27.25;47.64;98867.95;105802;1256;68850;-75
2023/07/01 09:06:40;;;;;;;4.60;3.80;;;;;;;27.20;47.92;98868.02;105794;1255;72782;-74
2023/07/01 09:09:08;;;;;;;9.60;6.50;;;;;;;27.17;48.03;98866.16;105404;1261;59614;-75
2023/07/01 09:11:36;;;;;;;3.70;3.40;;;;;;;27.18;47.32;98870.72;105373;1256;59995;-73
2023/07/01 09:14:03;;;;;;;4.20;3.70;;;;;;;27.14;47.12;98870.23;105317;1255;73042;-75
2023/07/01 09:16:36;;;;;;;4.30;3.90;;;;;;;27.14;47.46;98864.69;105804;1260;69165;-75
2023/07/01 09:19:04;;;;;;;4.50;3.50;;;;;;;27.24;47.92;98865.63;105315;1260;74999;-76
2023/07/01 09:21:32;;;;;;;3.80;3.20;;;;;;;27.30;47.01;98865.96;105763;1257;59708;-75
2023/07/01 09:24:00;;;;;;;5.70;3.70;;;;;;;27.25;46.89;98863.91;107397;1255;60379;-74
2023/07/01 09:26:30;;;;;;;4.70;3.40;;;;;;;27.31;47.16;98859.02;107614;1255;72002;-75
2023/07/01 09:28:58;;;;;;;3.90;3.50;;;;;;;27.56;47.41;98854.23;105847;1256;70612;-77
2023/07/01 09:31:28;;;;;;;3.60;3.30;;;;;;;28.07;46.72;98857.02;105754;1258;72735;-77
2023/07/01 09:34:06;;;;;;;3.30;3.00;;;;;;;28.66;45.29;98855.61;105587;1258;61003;-75
2023/07/01 09:36:33;;;;;;;4.00;3.50;;;;;;;29.15;44.02;98848.04;105686;1255;59811;-75
2023/07/01 09:39:02;;;;;;;4.70;3.60;;;;;;;29.41;43.75;98846.34;105271;1256;71955;-75
2023/07/01 09:41:30;;;;;;;3.50;3.20;;;;;;;29.51;43.81;98844.30;105723;1260;70434;-77
2023/07/01 09:43:58;;;;;;;6.00;4.00;;;;;;;29.66;43.07;98848.04;105623;1254;71522;-75
2023/07/01 09:46:42;;;;;;;3.60;3.30;;;;;;;29.94;41.84;98848.55;105303;1255;60360;-76
2023/07/01 09:49:10;;;;;;;4.50;3.10;;;;;;;30.17;41.39;98841.59;105712;1260;60064;-74
2023/07/01 09:51:51;;;;;;;3.30;3.10;;;;;;;30.24;41.46;98834.69;105701;1256;73050;-74
2023/07/01 09:54:29;;;;;;;3.60;3.20;;;;;;;30.23;41.74;98838.43;107310;1255;68740;-74
2023/07/01 09:56:58;;;;;;;3.50;3.10;;;;;;;30.24;41.45;98840.05;107259;1255;71602;-76
2023/07/01 09:59:26;;;;;;;4.00;3.30;;;;;;;30.19;42.09;98838.48;105730;1255;59742;-73
2023/07/01 10:01:55;;;;;;;3.80;3.40;;;;;;;30.29;41.42;98841.52;105703;1261;59616;-76
2023/07/01 10:04:28;;;;;;;3.90;3.00;;;;;;;30.41;40.67;98834.80;105757;1256;73029;-77
2023/07/01 10:06:57;;;;;;;3.60;3.30;;;;;;;30.51;40.17;98835.34;105622;1260;69705;-76
2023/07/01 10:09:26;;;;;;;4.30;3.20;;;;;;;30.57;40.18;98831.99;105335;1256;71690;-75
2023/07/01 10:11:57;;;;;;;3.60;3.30;;;;;;;30.67;40.28;98832.11;105713;1260;59546;-77
2023/07/01 10:14:26;;;;;;;4.00;3.20;;;;;;;30.69;40.23;98831.56;106621;1255;60252;-75
2023/07/01 10:16:53;;;;;;;5.80;3.50;;;;;;;30.59;39.53;98826.67;107015;1255;71657;-78
2023/07/01 10:19:26;;;;;;;3.80;3.10;;;;;;;30.77;39.83;98826.23;105850;1261;70175;-76
2023/07/01 10:22:17;;;;;;;6.00;3.10;;;;;;;31.16;39.20;98821.73;105624;1256;72532;-76
2023/07/01 10:24:44;;;;;;;4.90;3.50;;;;;;;31.61;38.36;98814.13;107436;1255;60494;-74
2023/07/01 10:27:11;;;;;;;4.10;3.40;;;;;;;31.89;37.72;98810.73;107956;1255;59495;-72
2023/07/01 10:29:55;;;;;;;3.40;3.10;;;;;;;32.10;36.69;98813.06;105396;1259;73086;-74
2023/07/01 10:32:26;;;;;;;3.60;3.30;;;;;;;32.23;36.89;98817.39;105356;1256;70111;-74
2023/07/01 10:34:54;;;;;;;5.00;3.20;;;;;;;32.13;37.13;98815.78;105872;1256;72750;-77
2023/07/01 10:37:24;;;;;;;4.30;3.30;;;;;;;31.97;37.79;98817.88;106404;1260;59498;-74
2023/07/01 10:39:52;;;;;;;3.60;3.30;;;;;;;31.67;38.61;98812.86;107144;1261;59521;-75
2023/07/01 10:42:33;;;;;;;4.20;3.30;;;;;;;31.38;39.06;98812.20;105738;1258;72253;-74
2023/07/01 10:45:10;;;;;;;3.60;3.30;;;;;;;30.98;40.01;98814.54;105604;1261;68881;-77
2023/07/01 10:47:42;;;;;;;4.30;3.70;;;;;;;30.53;40.60;98815.77;106011;1256;72344;-74
2023/07/01 10:50:12;;;;;;;4.00;3.40;;;;;;;30.17;41.48;98809.38;105942;1260;59294;-77
2023/07/01 10:55:34;;;;;;;3.60;3.30;;;;;;;29.57;42.28;98811.58;108182;1255;71813;-76
2023/07/01 10:58:15;;;;;;;3.50;3.20;;;;;;;29.37;42.59;98811.08;105949;1255;69345;-76
2023/07/01 11:00:43;;;;;;;6.10;3.50;;;;;;;29.32;42.45;98815.02;105687;1261;71393;-76
2023/07/01 11:03:32;;;;;;;4.70;3.50;;;;;;;29.42;42.72;98813.77;105480;1260;60512;-76
2023/07/01 11:06:11;;;;;;;5.40;3.90;;;;;;;29.56;42.51;98811.14;105635;1255;60829;-78
2023/07/01 11:08:43;;;;;;;4.70;3.50;;;;;;;29.58;42.47;98810.70;105921;1256;74038;-76
2023/07/01 11:11:11;;;;;;;4.00;3.60;;;;;;;29.58;42.84;98805.70;105858;1260;71416;-73
2023/07/01 11:13:39;;;;;;;3.80;3.40;;;;;;;29.64;42.39;98806.09;105618;1256;72699;-74
2023/07/01 11:16:07;;;;;;;3.70;3.40;;;;;;;29.65;42.39;98812.13;105549;1257;60490;-75
2023/07/01 11:18:47;;;;;;;4.40;3.70;;;;;;;29.58;42.44;98809.82;105768;1260;60349;-75
2023/07/01 11:21:22;;;;;;;3.80;3.50;;;;;;;29.41;42.84;98809.29;105730;1255;74152;-74
2023/07/01 11:23:54;;;;;;;3.70;3.40;;;;;;;29.26;43.46;98806.21;107019;1255;69168;-77
2023/07/01 11:26:23;;;;;;;4.10;3.70;;;;;;;29.20;43.08;98805.92;108113;1255;71290;-76
2023/07/01 11:28:51;;;;;;;7.20;3.70;;;;;;;29.25;42.72;98804.86;106896;1259;60411;-75
2023/07/01 11:31:23;;;;;;;4.80;3.70;;;;;;;29.47;43.13;98809.75;105736;1261;60493;-74
2023/07/01 11:33:51;;;;;;;5.80;3.50;;;;;;;29.82;42.86;98808.66;105779;1255;74549;-76
2023/07/01 11:36:20;;;;;;;4.20;3.40;;;;;;;30.09;41.69;98802.05;105678;1258;69505;-75
2023/07/01 11:38:49;;;;;;;4.10;3.80;;;;;;;30.15;41.58;98805.81;105451;1263;72002;-74